Time;durP1;ratioP1;P1;durP2;ratioP2;P2;SDS_P1;SDS_P2;PMS_P1;PMS_P2;Temp;Humidity;BMP_temperature;BMP_pressure;BME280_temperature;BME280_humidity;BME280_pressure;Samples;Min_cycle;Max_cycle;Signal;HPM_P1;HPM_P2
2023/05/19 00:01:24;;;;;;;3.30;1.90;;;12.80;99.90;;;;;;4970464;28;20202;-71
2023/05/19 00:03:53;;;;;;;4.53;1.80;;;12.80;99.90;;;;;;4982300;28;20230;-71
2023/05/19 00:06:24;;;;;;;3.60;2.20;;;12.70;99.90;;;;;;4975901;28;20669;-71
2023/05/19 00:08:57;;;;;;;4.37;2.00;;;12.70;99.90;;;;;;4979925;28;20720;-71
2023/05/19 00:11:25;;;;;;;5.27;2.00;;;12.70;99.90;;;;;;4976695;28;20967;-71
2023/05/19 00:13:53;;;;;;;3.70;2.13;;;12.70;99.90;;;;;;4977196;28;20202;-71
2023/05/19 00:16:21;;;;;;;5.17;2.00;;;12.70;99.90;;;;;;4974309;28;20206;-72
2023/05/19 00:18:50;;;;;;;5.40;2.10;;;12.70;99.80;;;;;;4972483;28;20630;-72
2023/05/19 00:21:17;;;;;;;3.90;2.03;;;12.70;99.80;;;;;;4981480;28;20203;-71
2023/05/19 00:23:44;;;;;;;6.03;2.27;;;12.70;99.90;;;;;;4989163;28;20630;-71
2023/05/19 00:26:11;;;;;;;4.90;2.27;;;12.60;99.80;;;;;;4989517;28;20234;-71
2023/05/19 00:28:38;;;;;;;6.80;2.27;;;12.40;99.90;;;;;;4989552;28;20214;-71
2023/05/19 00:31:05;;;;;;;3.30;1.67;;;12.50;99.90;;;;;;4989131;28;20771;-71
2023/05/19 00:33:33;;;;;;;4.40;1.80;;;12.50;99.90;;;;;;4988315;28;20929;-71
2023/05/19 00:36:02;;;;;;;5.30;2.07;;;12.40;99.90;;;;;;4989592;28;20206;-71
2023/05/19 00:38:30;;;;;;;6.63;2.23;;;12.50;99.90;;;;;;4989392;28;20261;-71
2023/05/19 00:40:57;;;;;;;8.33;2.40;;;12.50;99.80;;;;;;4988906;28;20300;-71
2023/05/19 00:43:24;;;;;;;5.37;1.97;;;12.50;99.80;;;;;;4988292;28;20477;-71
2023/05/19 00:45:51;;;;;;;3.50;1.70;;;12.50;99.70;;;;;;4988684;28;20752;-71
2023/05/19 00:48:18;;;;;;;3.43;1.90;;;12.40;99.60;;;;;;4988595;28;20320;-71
2023/05/19 00:50:45;;;;;;;4.37;1.70;;;12.40;99.70;;;;;;4988935;28;20210;-71
2023/05/19 00:53:14;;;;;;;3.77;2.37;;;12.40;99.80;;;;;;4987549;28;20292;-71
2023/05/19 00:55:42;;;;;;;6.90;2.30;;;12.40;99.80;;;;;;4969203;28;20242;-71
2023/05/19 00:58:11;;;;;;;5.27;2.20;;;12.40;99.80;;;;;;4968948;28;20330;-71
2023/05/19 01:00:39;;;;;;;4.33;2.30;;;12.30;99.80;;;;;;4969410;28;21149;-71
2023/05/19 01:03:09;;;;;;;4.90;2.00;;;12.20;99.90;;;;;;4983476;28;20238;-71
2023/05/19 01:05:38;;;;;;;8.53;2.17;;;12.10;99.90;;;;;;4988753;28;20194;-71
2023/05/19 01:08:06;;;;;;;2.47;1.93;;;12.10;99.90;;;;;;4988442;28;20253;-72
2023/05/19 01:10:34;;;;;;;6.13;2.07;;;12.10;99.90;;;;;;4988481;28;20214;-71
2023/05/19 01:13:03;;;;;;;3.67;2.37;;;12.10;99.90;;;;;;4988806;28;20252;-71
2023/05/19 01:15:32;;;;;;;3.13;2.00;;;12.10;99.90;;;;;;4975145;28;20290;-71
2023/05/19 01:18:06;;;;;;;4.03;2.10;;;12.10;99.90;;;;;;4984577;28;20207;-70
2023/05/19 01:20:38;;;;;;;3.53;2.00;;;12.10;99.90;;;;;;4973373;28;20619;-70
2023/05/19 01:23:23;;;;;;;3.63;1.70;;;12.10;99.90;;;;;;4972797;28;20321;-71
2023/05/19 01:26:29;;;;;;;2.50;1.70;;;12.10;99.90;;;;;;4988295;28;20313;-70
2023/05/19 01:29:16;;;;;;;3.77;1.97;;;12.10;99.90;;;;;;4987386;28;20218;-70
2023/05/19 01:31:47;;;;;;;2.03;1.73;;;12.10;99.90;;;;;;4971415;28;20212;-70
2023/05/19 01:34:16;;;;;;;5.07;2.07;;;12.10;99.90;;;;;;4987949;28;20204;-70
2023/05/19 01:36:47;;;;;;;7.10;2.10;;;12.10;99.90;;;;;;4987937;28;20732;-70
2023/05/19 01:39:14;;;;;;;3.70;2.13;;;12.10;99.90;;;;;;4987762;28;20198;-75
2023/05/19 01:41:42;;;;;;;3.00;1.93;;;12.10;99.90;;;;;;4984682;28;20679;-70
2023/05/19 01:44:10;;;;;;;2.40;1.90;;;12.10;99.90;;;;;;4968578;28;20260;-70
2023/05/19 01:46:38;;;;;;;4.97;1.97;;;12.00;99.90;;;;;;4968623;28;20568;-71
2023/05/19 01:49:07;;;;;;;4.43;2.30;;;11.90;99.90;;;;;;4981259;28;20270;-70
2023/05/19 01:51:34;;;;;;;4.73;2.00;;;11.90;99.90;;;;;;4987736;28;20216;-71
2023/05/19 01:54:01;;;;;;;3.83;2.27;;;11.90;99.90;;;;;;4987716;28;20206;-70
2023/05/19 01:56:38;;;;;;;2.83;1.70;;;11.80;99.90;;;;;;4987765;28;20344;-70
2023/05/19 01:59:15;;;;;;;3.67;2.00;;;11.80;99.90;;;;;;4968232;28;20642;-70
2023/05/19 02:01:51;;;;;;;3.13;1.93;;;11.80;99.90;;;;;;4968926;28;20203;-70
2023/05/19 02:04:29;;;;;;;5.93;2.30;;;11.80;99.90;;;;;;4967857;28;20234;-71
2023/05/19 02:07:02;;;;;;;2.87;2.13;;;11.90;99.90;;;;;;4982228;28;20230;-70
2023/05/19 02:09:41;;;;;;;6.20;2.27;;;11.90;99.90;;;;;;4986969;28;20244;-70
2023/05/19 02:12:13;;;;;;;3.80;2.37;;;11.90;99.90;;;;;;4968273;28;20205;-70
2023/05/19 02:14:45;;;;;;;4.53;2.33;;;11.90;99.90;;;;;;4967714;28;20617;-70
2023/05/19 02:17:14;;;;;;;5.37;1.57;;;11.80;99.90;;;;;;4985647;28;20292;-70
2023/05/19 02:19:43;;;;;;;2.93;2.00;;;11.80;99.90;;;;;;4987494;28;20298;-73
2023/05/19 02:22:10;;;;;;;3.37;2.03;;;11.80;99.90;;;;;;4987487;28;20669;-71
2023/05/19 02:24:38;;;;;;;5.10;1.90;;;11.70;99.90;;;;;;4970226;28;20245;-70
2023/05/19 02:27:06;;;;;;;5.60;1.90;;;11.80;99.90;;;;;;4978551;28;20426;-71
2023/05/19 02:29:33;;;;;;;4.77;2.00;;;11.80;99.90;;;;;;4987086;28;20203;-71
2023/05/19 02:32:01;;;;;;;3.40;2.00;;;11.70;99.90;;;;;;4986944;28;20664;-71
2023/05/19 02:34:27;;;;;;;7.80;2.07;;;11.70;99.90;;;;;;4986845;28;20217;-71
2023/05/19 02:36:56;;;;;;;2.57;1.77;;;11.70;99.90;;;;;;4986947;28;20304;-71
2023/05/19 02:39:23;;;;;;;4.27;2.13;;;11.60;99.90;;;;;;4987149;28;20309;-71
2023/05/19 02:41:50;;;;;;;6.83;1.90;;;11.60;99.90;;;;;;4973515;28;20206;-71
2023/05/19 02:44:17;;;;;;;5.23;2.47;;;11.60;99.90;;;;;;4986849;28;20222;-71
2023/05/19 02:46:44;;;;;;;4.07;1.97;;;11.50;99.90;;;;;;4986811;28;20317;-71
2023/05/19 02:49:11;;;;;;;3.83;1.80;;;11.50;99.90;;;;;;4986400;28;20218;-71
2023/05/19 02:51:37;;;;;;;4.80;2.10;;;11.50;99.90;;;;;;4986812;28;20214;-71
2023/05/19 02:54:06;;;;;;;2.97;2.00;;;11.50;99.90;;;;;;4986811;28;20212;-71
2023/05/19 02:56:33;;;;;;;3.90;1.90;;;11.50;99.90;;;;;;4986615;28;20305;-71
2023/05/19 02:59:00;;;;;;;4.67;2.40;;;11.50;99.90;;;;;;4987128;28;20680;-71
2023/05/19 03:01:27;;;;;;;5.50;2.20;;;11.50;99.90;;;;;;4986822;28;20210;-72
2023/05/19 03:03:54;;;;;;;3.63;1.90;;;11.40;99.90;;;;;;4987002;28;20289;-71
2023/05/19 03:06:22;;;;;;;3.20;2.30;;;11.40;99.90;;;;;;4986798;28;20208;-71
2023/05/19 03:08:49;;;;;;;5.03;2.20;;;11.40;99.90;;;;;;4986784;28;20242;-71
2023/05/19 03:11:17;;;;;;;5.30;2.40;;;11.40;99.90;;;;;;4972376;28;20222;-71
2023/05/19 03:13:44;;;;;;;5.40;2.80;;;11.40;99.90;;;;;;4986392;28;20681;-71
2023/05/19 03:16:12;;;;;;;3.80;2.70;;;11.40;99.90;;;;;;4986874;28;20223;-71
2023/05/19 03:18:39;;;;;;;5.17;2.57;;;11.50;99.90;;;;;;4986290;28;20946;-71
2023/05/19 03:21:06;;;;;;;5.27;2.30;;;11.50;99.90;;;;;;4967471;28;21046;-71
2023/05/19 03:23:33;;;;;;;6.33;2.17;;;11.40;99.90;;;;;;4975118;28;20906;-71
2023/05/19 03:26:00;;;;;;;3.23;2.20;;;11.50;99.90;;;;;;4986887;28;20434;-72
2023/05/19 03:28:28;;;;;;;8.10;2.47;;;11.50;99.90;;;;;;4984673;28;20305;-71
2023/05/19 03:30:55;;;;;;;6.30;2.60;;;11.40;99.90;;;;;;4986637;28;20301;-71
2023/05/19 03:33:22;;;;;;;2.37;2.10;;;11.40;99.90;;;;;;4986715;28;20558;-71
2023/05/19 03:35:49;;;;;;;3.03;2.07;;;11.30;99.90;;;;;;4974872;28;20211;-71
2023/05/19 03:38:16;;;;;;;2.37;2.10;;;11.40;99.90;;;;;;4981973;28;20207;-71
2023/05/19 03:40:43;;;;;;;3.73;1.87;;;11.40;99.90;;;;;;4976598;28;20322;-70
2023/05/19 03:43:10;;;;;;;4.70;2.30;;;11.40;99.90;;;;;;4970376;28;20230;-72
2023/05/19 03:45:39;;;;;;;4.60;2.17;;;11.30;99.90;;;;;;4970423;28;20636;-70
2023/05/19 03:48:06;;;;;;;3.83;2.10;;;11.40;99.90;;;;;;4970744;28;20238;-70
2023/05/19 03:50:33;;;;;;;2.70;2.00;;;11.30;99.90;;;;;;4974472;28;20666;-71
2023/05/19 03:53:00;;;;;;;3.93;1.93;;;11.30;99.90;;;;;;4990004;28;20350;-71
2023/05/19 03:55:28;;;;;;;5.57;2.20;;;11.40;99.90;;;;;;4989725;28;20703;-71
2023/05/19 03:57:56;;;;;;;5.03;2.33;;;11.40;99.90;;;;;;4990054;28;20288;-71
2023/05/19 04:00:23;;;;;;;3.73;2.10;;;11.40;99.90;;;;;;4986612;28;20572;-71
2023/05/19 04:02:51;;;;;;;4.30;2.27;;;11.40;99.90;;;;;;4982558;28;20220;-71
2023/05/19 04:05:18;;;;;;;3.63;2.50;;;11.40;99.90;;;;;;4989736;28;20214;-73
2023/05/19 04:07:45;;;;;;;3.00;2.17;;;11.40;99.90;;;;;;4988902;28;20867;-71
2023/05/19 04:10:13;;;;;;;3.47;2.00;;;11.50;99.90;;;;;;4983481;28;20542;-72
2023/05/19 04:12:39;;;;;;;5.10;2.17;;;11.50;99.90;;;;;;4972887;28;20288;-72
2023/05/19 04:15:10;;;;;;;2.43;1.80;;;11.40;99.90;;;;;;4989265;28;20217;-72
2023/05/19 04:17:37;;;;;;;2.70;2.10;;;11.50;99.90;;;;;;4989448;28;20241;-72
2023/05/19 04:20:06;;;;;;;3.97;2.07;;;11.50;99.90;;;;;;4989286;28;20934;-73
2023/05/19 04:22:33;;;;;;;3.63;1.93;;;11.60;99.90;;;;;;4989055;28;20293;-73
2023/05/19 04:25:02;;;;;;;3.50;2.20;;;11.60;99.90;;;;;;4989254;28;20886;-72
2023/05/19 04:27:30;;;;;;;4.17;2.20;;;11.60;99.90;;;;;;4989402;28;20215;-72
2023/05/19 04:29:58;;;;;;;4.63;2.13;;;11.60;99.90;;;;;;4988967;28;20303;-72
2023/05/19 04:32:25;;;;;;;6.67;2.17;;;11.50;99.90;;;;;;4988909;28;20296;-72
2023/05/19 04:34:52;;;;;;;2.40;2.10;;;11.50;99.90;;;;;;4988855;28;20249;-73
2023/05/19 04:37:20;;;;;;;5.37;2.37;;;11.50;99.90;;;;;;4988790;28;20198;-72
2023/05/19 04:39:47;;;;;;;2.20;1.80;;;11.50;99.90;;;;;;4988995;28;20300;-72
2023/05/19 04:42:18;;;;;;;4.57;2.10;;;11.50;99.90;;;;;;4989114;28;20305;-71
2023/05/19 04:44:45;;;;;;;5.80;2.40;;;11.50;99.90;;;;;;4988706;28;20580;-72
2023/05/19 04:47:13;;;;;;;3.43;2.00;;;11.40;99.90;;;;;;4988001;28;21075;-72
2023/05/19 04:49:40;;;;;;;2.90;2.00;;;11.50;99.90;;;;;;4981694;28;20211;-71
2023/05/19 04:52:09;;;;;;;3.00;1.90;;;11.50;99.90;;;;;;4970538;28;20210;-72
2023/05/19 04:54:38;;;;;;;4.40;2.23;;;11.60;99.90;;;;;;4987421;28;20239;-71
2023/05/19 04:57:06;;;;;;;4.40;1.83;;;11.70;99.90;;;;;;4988798;28;20301;-72
2023/05/19 04:59:33;;;;;;;7.50;2.50;;;11.70;99.90;;;;;;4988537;28;20218;-71
2023/05/19 05:02:00;;;;;;;5.87;2.00;;;11.70;99.90;;;;;;4988041;28;20301;-71
2023/05/19 05:04:27;;;;;;;4.63;1.80;;;11.80;99.90;;;;;;4987992;28;20234;-71
2023/05/19 05:06:54;;;;;;;3.50;2.27;;;11.80;99.90;;;;;;4988739;28;20210;-71
2023/05/19 05:09:20;;;;;;;3.00;2.30;;;11.80;99.90;;;;;;4988077;28;20755;-72
2023/05/19 05:11:50;;;;;;;4.97;2.20;;;11.80;99.90;;;;;;4988539;28;20233;-71
2023/05/19 05:14:17;;;;;;;3.97;2.47;;;11.80;99.90;;;;;;4988080;28;20206;-71
2023/05/19 05:16:46;;;;;;;6.37;2.67;;;11.80;99.90;;;;;;4988142;28;20210;-71
2023/05/19 05:19:13;;;;;;;3.00;2.13;;;11.90;99.90;;;;;;4988298;28;20210;-72
2023/05/19 05:21:42;;;;;;;4.33;2.40;;;11.90;99.90;;;;;;4987924;28;20224;-71
2023/05/19 05:24:10;;;;;;;4.33;2.33;;;11.90;99.90;;;;;;4987592;28;21012;-71
2023/05/19 05:26:38;;;;;;;4.53;2.37;;;12.00;99.90;;;;;;4987828;28;20213;-71
2023/05/19 05:29:06;;;;;;;6.93;2.77;;;12.00;99.90;;;;;;4988206;28;20212;-72
2023/05/19 05:31:33;;;;;;;6.17;2.43;;;12.00;99.90;;;;;;4987922;28;20614;-71
2023/05/19 05:34:00;;;;;;;3.53;2.20;;;12.10;99.90;;;;;;4987598;28;20214;-71
2023/05/19 05:36:27;;;;;;;3.93;2.30;;;12.10;99.90;;;;;;4987473;28;20250;-72
2023/05/19 05:38:54;;;;;;;5.33;2.30;;;12.20;99.90;;;;;;4987601;28;20285;-72
2023/05/19 05:41:21;;;;;;;3.57;2.40;;;12.20;99.90;;;;;;4987515;28;20210;-72
2023/05/19 05:43:48;;;;;;;4.00;2.50;;;12.20;99.90;;;;;;4987846;28;20233;-73
2023/05/19 05:46:16;;;;;;;3.03;2.07;;;12.30;99.90;;;;;;4987408;28;20748;-72
2023/05/19 05:48:44;;;;;;;27.10;3.83;;;12.30;99.90;;;;;;4987578;28;20841;-72
2023/05/19 05:51:11;;;;;;;3.53;2.23;;;12.30;99.90;;;;;;4987643;28;20241;-72
2023/05/19 05:53:44;;;;;;;2.53;2.33;;;12.30;99.90;;;;;;4987401;28;20781;-72
2023/05/19 05:56:13;;;;;;;4.47;2.20;;;12.40;99.90;;;;;;4987743;28;20730;-73
2023/05/19 05:58:40;;;;;;;4.23;2.10;;;12.40;99.90;;;;;;4987027;28;20674;-72
2023/05/19 06:01:10;;;;;;;3.80;1.93;;;12.50;99.90;;;;;;4981244;28;20222;-72
2023/05/19 06:03:40;;;;;;;5.23;2.10;;;12.50;99.90;;;;;;4987250;28;20233;-72
2023/05/19 06:06:07;;;;;;;5.23;2.50;;;12.60;99.90;;;;;;4986977;28;20649;-72
2023/05/19 06:08:34;;;;;;;3.47;2.20;;;12.60;99.90;;;;;;4986713;28;20238;-72
2023/05/19 06:11:06;;;;;;;48.63;6.30;;;12.60;99.90;;;;;;4987282;28;20694;-72
2023/05/19 06:13:34;;;;;;;43.13;5.50;;;12.70;99.90;;;;;;4986772;28;20699;-72
2023/05/19 06:16:01;;;;;;;12.17;2.73;;;12.70;99.90;;;;;;4986701;28;20302;-72
2023/05/19 06:18:28;;;;;;;24.43;3.70;;;12.80;99.90;;;;;;4986978;28;20665;-72
2023/05/19 06:20:56;;;;;;;4.47;2.33;;;12.80;99.90;;;;;;4987115;28;20242;-72
2023/05/19 06:23:24;;;;;;;4.90;2.53;;;12.90;99.90;;;;;;4986875;28;20343;-72
2023/05/19 06:25:50;;;;;;;7.73;2.43;;;12.90;99.90;;;;;;4986998;28;20261;-72
2023/05/19 06:28:17;;;;;;;4.63;2.20;;;12.90;99.90;;;;;;4987035;28;20289;-71
2023/05/19 06:30:44;;;;;;;40.47;5.20;;;13.00;99.90;;;;;;4987194;28;20302;-71
2023/05/19 06:33:11;;;;;;;12.03;2.83;;;13.00;99.90;;;;;;4987608;28;20212;-71
2023/05/19 06:35:38;;;;;;;31.40;3.93;;;13.00;99.90;;;;;;4987221;28;20209;-71
2023/05/19 06:38:06;;;;;;;4.60;2.60;;;13.10;99.90;;;;;;4986839;28;20202;-71
2023/05/19 06:40:34;;;;;;;4.67;2.40;;;13.10;99.90;;;;;;4987021;28;20237;-72
2023/05/19 06:43:01;;;;;;;3.77;2.23;;;13.20;99.90;;;;;;4987663;28;20206;-72
2023/05/19 06:45:28;;;;;;;4.63;2.23;;;13.20;99.90;;;;;;4986971;28;20265;-72
2023/05/19 06:47:57;;;;;;;3.10;2.30;;;13.20;99.90;;;;;;4986791;28;20740;-72
2023/05/19 06:50:24;;;;;;;3.77;2.30;;;13.30;99.90;;;;;;4986450;28;20289;-72
2023/05/19 06:52:51;;;;;;;3.57;2.50;;;13.30;99.90;;;;;;4975618;28;20686;-73
2023/05/19 06:55:19;;;;;;;73.90;7.10;;;13.30;99.90;;;;;;4967448;28;20278;-73
2023/05/19 06:57:46;;;;;;;7.13;2.57;;;13.40;99.90;;;;;;4979418;28;20297;-73
2023/05/19 07:00:13;;;;;;;3.10;2.40;;;13.40;99.90;;;;;;4986604;28;20261;-72
2023/05/19 07:02:40;;;;;;;2.97;2.20;;;13.40;99.90;;;;;;4986781;28;20298;-72
2023/05/19 07:05:08;;;;;;;5.57;2.50;;;13.50;99.90;;;;;;4986769;28;20624;-73
2023/05/19 07:07:35;;;;;;;3.67;2.60;;;13.50;99.90;;;;;;4986630;28;20329;-72
2023/05/19 07:10:02;;;;;;;5.67;2.40;;;13.60;99.90;;;;;;4986657;28;20728;-73
2023/05/19 07:12:30;;;;;;;4.40;2.43;;;13.70;99.90;;;;;;4986709;28;20230;-72
2023/05/19 07:14:57;;;;;;;4.90;2.27;;;13.70;99.90;;;;;;4986626;28;21041;-72
2023/05/19 07:17:23;;;;;;;4.97;2.20;;;13.70;99.90;;;;;;4988698;28;20656;-71
2023/05/19 07:19:50;;;;;;;4.60;2.43;;;13.80;99.90;;;;;;4990726;28;20237;-71
2023/05/19 07:22:17;;;;;;;2.73;2.33;;;13.80;99.90;;;;;;4990480;28;20229;-71
2023/05/19 07:24:44;;;;;;;4.47;2.23;;;13.90;99.90;;;;;;4990501;28;20320;-71
2023/05/19 07:27:11;;;;;;;4.60;2.40;;;14.00;99.90;;;;;;4990682;28;20291;-71
2023/05/19 07:29:39;;;;;;;12.17;2.77;;;14.00;99.90;;;;;;4990513;28;20206;-71
2023/05/19 07:32:07;;;;;;;3.80;2.27;;;14.10;99.90;;;;;;4990533;28;20665;-71
2023/05/19 07:34:33;;;;;;;5.00;2.23;;;14.10;99.90;;;;;;4990399;28;20216;-71
2023/05/19 07:37:00;;;;;;;2.37;1.80;;;14.20;99.90;;;;;;4991047;28;20206;-71
2023/05/19 07:39:28;;;;;;;4.80;2.23;;;14.20;99.90;;;;;;4990361;28;20214;-71
2023/05/19 07:41:55;;;;;;;2.03;1.67;;;14.20;99.90;;;;;;4970869;28;20258;-70
2023/05/19 07:44:22;;;;;;;18.23;3.60;;;14.30;99.90;;;;;;4971100;28;20282;-71
2023/05/19 07:46:50;;;;;;;5.30;2.40;;;14.40;99.90;;;;;;4989387;28;20301;-71
2023/05/19 07:49:17;;;;;;;4.33;2.23;;;14.50;99.90;;;;;;4989975;28;20228;-71
2023/05/19 07:51:44;;;;;;;3.17;2.33;;;14.60;99.90;;;;;;4990273;28;20305;-71
2023/05/19 07:54:11;;;;;;;3.53;2.10;;;14.70;99.90;;;;;;4989694;28;20218;-71
2023/05/19 07:56:40;;;;;;;3.60;2.03;;;14.80;99.90;;;;;;4990169;28;20253;-71
2023/05/19 07:59:07;;;;;;;6.77;2.30;;;14.80;99.90;;;;;;4988751;28;21145;-72
2023/05/19 08:01:34;;;;;;;5.27;2.30;;;14.90;99.90;;;;;;4981745;28;20203;-72
2023/05/19 08:04:02;;;;;;;2.83;2.07;;;15.00;99.90;;;;;;4978561;28;20219;-71
2023/05/19 08:06:30;;;;;;;8.70;2.53;;;15.20;99.90;;;;;;4979247;28;20539;-72
2023/05/19 08:08:57;;;;;;;14.43;2.60;;;15.20;99.90;;;;;;4978935;28;20271;-71
2023/05/19 08:11:24;;;;;;;2.13;1.93;;;15.30;99.90;;;;;;4979679;28;20221;-71
2023/05/19 08:13:51;;;;;;;2.27;2.00;;;15.30;99.90;;;;;;4979455;28;20784;-71
2023/05/19 08:16:18;;;;;;;2.10;2.00;;;15.40;99.90;;;;;;4978628;28;20358;-71
2023/05/19 08:18:47;;;;;;;4.67;2.20;;;15.40;99.90;;;;;;4979135;28;20738;-71
2023/05/19 08:21:15;;;;;;;3.57;2.30;;;15.50;99.90;;;;;;4979094;28;20276;-71
2023/05/19 08:23:42;;;;;;;2.10;2.00;;;15.60;99.90;;;;;;4978943;28;20294;-70
2023/05/19 08:26:09;;;;;;;2.23;2.07;;;15.60;99.90;;;;;;4977536;28;20240;-72
2023/05/19 08:28:36;;;;;;;14.17;2.87;;;15.70;99.90;;;;;;4977329;28;20282;-72
2023/05/19 08:31:03;;;;;;;13.83;3.53;;;15.70;99.90;;;;;;4979444;28;20225;-72
2023/05/19 08:33:29;;;;;;;6.10;2.50;;;15.80;99.90;;;;;;4978999;28;20669;-72
2023/05/19 08:35:57;;;;;;;5.90;2.50;;;15.80;99.90;;;;;;4977998;28;20737;-72
2023/05/19 08:38:25;;;;;;;2.50;2.10;;;15.90;99.90;;;;;;4977446;28;20703;-72
2023/05/19 08:40:53;;;;;;;2.77;2.30;;;15.90;99.90;;;;;;4977128;28;20206;-71
2023/05/19 08:43:20;;;;;;;2.33;2.10;;;16.00;99.90;;;;;;4978993;28;20696;-73
2023/05/19 08:45:46;;;;;;;4.93;2.30;;;16.00;99.90;;;;;;4976294;28;20262;-73
2023/05/19 08:48:16;;;;;;;15.33;2.80;;;16.10;99.90;;;;;;4978930;28;20649;-73
2023/05/19 08:50:48;;;;;;;4.20;2.27;;;16.10;99.90;;;;;;4982005;28;20219;-72
2023/05/19 08:53:21;;;;;;;3.40;2.07;;;16.10;99.90;;;;;;4979306;28;20198;-73
2023/05/19 08:55:58;;;;;;;4.83;2.20;;;16.10;99.90;;;;;;4976887;28;20655;-71
2023/05/19 08:58:26;;;;;;;3.20;1.97;;;16.10;99.90;;;;;;4977190;28;20573;-71
2023/05/19 09:00:56;;;;;;;59.53;5.83;;;16.10;99.90;;;;;;4979130;28;20209;-71
2023/05/19 09:03:25;;;;;;;12.10;2.13;;;16.10;99.90;;;;;;4982563;28;20210;-71
2023/05/19 09:05:52;;;;;;;1.90;1.80;;;16.10;99.90;;;;;;4980660;28;20234;-71
2023/05/19 09:08:19;;;;;;;2.23;2.03;;;16.10;99.90;;;;;;4986780;28;20742;-72
2023/05/19 09:10:46;;;;;;;2.30;2.10;;;16.20;99.90;;;;;;4976823;28;20211;-71
2023/05/19 09:13:14;;;;;;;3.73;1.90;;;16.30;99.90;;;;;;4968750;28;20297;-71
2023/05/19 09:15:44;;;;;;;1.67;1.53;;;16.40;99.90;;;;;;4986806;28;20210;-71
2023/05/19 09:18:13;;;;;;;3.23;1.80;;;16.60;99.90;;;;;;4986825;28;20210;-71
2023/05/19 09:20:41;;;;;;;6.67;1.90;;;16.70;99.90;;;;;;4986837;28;20296;-72
2023/05/19 09:23:13;;;;;;;3.20;1.90;;;16.70;99.90;;;;;;4986405;28;20289;-72
2023/05/19 09:25:47;;;;;;;2.73;1.80;;;16.70;99.60;;;;;;4986955;28;20230;-72
2023/05/19 09:28:23;;;;;;;1.93;1.80;;;16.70;99.50;;;;;;4987283;28;20213;-71
2023/05/19 09:30:59;;;;;;;2.00;1.73;;;16.70;99.20;;;;;;4981140;28;20198;-71
2023/05/19 09:33:27;;;;;;;7.33;1.50;;;16.90;99.00;;;;;;4967176;28;20194;-72
2023/05/19 09:35:54;;;;;;;2.73;1.33;;;17.00;98.50;;;;;;4967257;28;20206;-71
2023/05/19 09:38:21;;;;;;;17.30;2.87;;;17.00;97.50;;;;;;4966367;28;20729;-71
2023/05/19 09:40:50;;;;;;;2.17;1.57;;;17.00;96.80;;;;;;4966196;28;20221;-71
2023/05/19 09:43:18;;;;;;;1.57;1.47;;;17.10;96.80;;;;;;4973912;28;20207;-72
2023/05/19 09:45:45;;;;;;;1.47;1.20;;;17.10;96.80;;;;;;4972907;28;20328;-71
2023/05/19 09:48:13;;;;;;;3.13;1.30;;;17.20;97.00;;;;;;4979804;28;20329;-71
2023/05/19 09:50:42;;;;;;;3.60;1.50;;;17.20;96.70;;;;;;4985319;28;20812;-71
2023/05/19 09:53:12;;;;;;;1.03;1.00;;;17.20;96.60;;;;;;4979273;28;20206;-71
2023/05/19 09:55:40;;;;;;;1.40;1.30;;;17.30;96.30;;;;;;4982464;28;20221;-71
2023/05/19 09:58:07;;;;;;;2.83;1.23;;;17.40;96.50;;;;;;4982214;28;20257;-71
2023/05/19 10:00:37;;;;;;;2.10;1.10;;;17.40;96.10;;;;;;4971290;28;20206;-71
2023/05/19 10:03:05;;;;;;;3.03;1.50;;;17.40;96.10;;;;;;4980151;28;20214;-72
2023/05/19 10:05:33;;;;;;;3.93;1.17;;;17.50;96.60;;;;;;4985257;28;20249;-71
2023/05/19 10:08:01;;;;;;;1.57;0.87;;;17.40;96.00;;;;;;4985140;28;20230;-71
2023/05/19 10:10:30;;;;;;;5.23;1.17;;;17.40;95.20;;;;;;4985611;28;20230;-71
2023/05/19 10:12:58;;;;;;;3.27;1.90;;;17.40;95.50;;;;;;4982904;28;20203;-71
2023/05/19 10:15:26;;;;;;;9.43;1.60;;;17.40;95.70;;;;;;4973567;28;20753;-71
2023/05/19 10:17:56;;;;;;;2.70;1.27;;;17.50;96.00;;;;;;4985868;28;20313;-71
2023/05/19 10:20:23;;;;;;;3.17;1.03;;;17.70;96.40;;;;;;4986042;28;20643;-71
2023/05/19 10:22:50;;;;;;;4.03;1.20;;;17.90;95.50;;;;;;4970099;28;20211;-71
2023/05/19 10:25:18;;;;;;;8.10;1.50;;;18.00;95.00;;;;;;4978637;28;20231;-71
2023/05/19 10:27:55;;;;;;;8.03;1.57;;;18.20;94.50;;;;;;4966606;28;20210;-71
2023/05/19 10:30:26;;;;;;;1.50;1.40;;;18.30;94.30;;;;;;4974146;28;20641;-71
2023/05/19 10:32:57;;;;;;;2.97;1.10;;;18.40;94.30;;;;;;4966666;28;20211;-71
2023/05/19 10:35:50;;;;;;;2.67;1.27;;;18.60;93.80;;;;;;4973647;28;20198;-72
2023/05/19 10:38:27;;;;;;;11.43;1.77;;;18.70;93.90;;;;;;4979270;28;20205;-71
2023/05/19 10:41:02;;;;;;;2.87;1.10;;;18.80;93.80;;;;;;4970968;28;20206;-72
2023/05/19 10:43:39;;;;;;;1.47;1.27;;;19.00;94.30;;;;;;4966661;28;20210;-72
2023/05/19 10:46:06;;;;;;;2.63;1.23;;;19.10;93.80;;;;;;4966128;28;21013;-71
2023/05/19 10:48:35;;;;;;;12.57;2.00;;;19.10;93.70;;;;;;4966558;28;20233;-71
2023/05/19 10:51:03;;;;;;;1.40;1.30;;;19.00;93.70;;;;;;4985281;28;20563;-71
2023/05/19 10:53:32;;;;;;;4.13;1.50;;;19.00;94.20;;;;;;4984779;28;20304;-71
2023/05/19 10:56:02;;;;;;;1.60;1.50;;;18.90;94.30;;;;;;4985124;28;20297;-71
2023/05/19 10:58:48;;;;;;;1.40;1.30;;;19.00;94.70;;;;;;4985034;28;20206;-71
2023/05/19 11:01:15;;;;;;;1.47;1.30;;;19.00;93.70;;;;;;4985159;28;20198;-72
2023/05/19 11:03:47;;;;;;;4.27;1.33;;;18.90;93.80;;;;;;4984714;28;20691;-71
2023/05/19 11:06:18;;;;;;;1.47;1.37;;;18.90;93.70;;;;;;4985041;28;20229;-71
2023/05/19 11:08:46;;;;;;;2.90;1.10;;;18.80;93.90;;;;;;4984742;28;20774;-71
2023/05/19 11:11:14;;;;;;;3.57;1.63;;;18.80;93.60;;;;;;4971995;28;20322;-71
2023/05/19 11:13:47;;;;;;;3.07;1.17;;;18.90;93.80;;;;;;4965856;28;20210;-71
2023/05/19 11:16:18;;;;;;;1.20;1.10;;;19.20;94.20;;;;;;4965523;28;20210;-71
2023/05/19 11:18:49;;;;;;;7.93;1.70;;;19.30;94.10;;;;;;4965645;28;20838;-71
2023/05/19 11:21:19;;;;;;;6.33;1.70;;;19.20;93.10;;;;;;4965564;28;20629;-71
2023/05/19 11:23:46;;;;;;;51.97;5.60;;;19.10;93.00;;;;;;4976083;28;20202;-71
2023/05/19 11:26:13;;;;;;;6.67;2.00;;;19.00;93.00;;;;;;4984941;28;20236;-72
2023/05/19 11:28:40;;;;;;;2.37;1.80;;;19.00;93.40;;;;;;4965852;28;20238;-71
2023/05/19 11:31:09;;;;;;;5.53;1.40;;;19.00;93.60;;;;;;4966308;28;20307;-72
2023/05/19 11:33:36;;;;;;;4.37;1.60;;;19.00;93.40;;;;;;4968557;28;20222;-72
2023/05/19 11:36:06;;;;;;;2.50;1.23;;;19.00;93.10;;;;;;4976204;28;20238;-72
2023/05/19 11:38:34;;;;;;;3.80;1.33;;;19.00;93.40;;;;;;4978961;28;20242;-72
2023/05/19 11:41:01;;;;;;;1.30;1.20;;;19.00;93.40;;;;;;4984972;28;20653;-71
2023/05/19 11:43:28;;;;;;;1.67;1.57;;;19.00;93.00;;;;;;4984274;28;20206;-71
2023/05/19 11:45:55;;;;;;;1.80;1.17;;;19.00;93.40;;;;;;4976410;28;20349;-71
2023/05/19 11:48:23;;;;;;;1.67;1.07;;;18.90;93.30;;;;;;4978639;28;20241;-71
2023/05/19 11:50:51;;;;;;;2.20;1.37;;;18.80;93.20;;;;;;4978138;28;20293;-72
2023/05/19 11:53:19;;;;;;;3.20;1.50;;;18.80;93.30;;;;;;4979731;28;20214;-72
2023/05/19 11:55:47;;;;;;;4.13;1.67;;;18.80;93.70;;;;;;4974782;28;20210;-72
2023/05/19 11:58:14;;;;;;;1.03;0.97;;;18.90;94.00;;;;;;4978183;28;20225;-72
2023/05/19 12:00:44;;;;;;;5.17;1.40;;;19.10;93.40;;;;;;4978106;28;20203;-72
2023/05/19 12:03:11;;;;;;;1.93;1.73;;;19.20;93.80;;;;;;4986069;28;20229;-72
2023/05/19 12:05:44;;;;;;;3.17;1.40;;;19.20;93.50;;;;;;4978229;28;20289;-72
2023/05/19 12:08:11;;;;;;;1.40;1.30;;;19.20;93.30;;;;;;4984393;28;20248;-72
2023/05/19 12:10:40;;;;;;;3.93;1.50;;;19.10;93.80;;;;;;4977282;28;20305;-72
2023/05/19 12:13:08;;;;;;;3.00;1.33;;;19.10;93.50;;;;;;4980245;28;20286;-72
2023/05/19 12:15:35;;;;;;;4.50;1.17;;;19.10;93.40;;;;;;4978362;28;20674;-72
2023/05/19 12:18:02;;;;;;;2.03;1.47;;;19.10;93.70;;;;;;4971918;28;20628;-72
2023/05/19 12:20:31;;;;;;;2.30;1.30;;;19.10;93.40;;;;;;4985288;28;20238;-72
2023/05/19 12:23:00;;;;;;;2.87;1.60;;;19.10;93.40;;;;;;4980391;28;20206;-71
2023/05/19 12:25:27;;;;;;;1.77;1.33;;;19.10;93.20;;;;;;4982566;28;20321;-72
2023/05/19 12:28:01;;;;;;;3.47;1.47;;;19.00;93.00;;;;;;4977769;28;20318;-72
2023/05/19 12:30:29;;;;;;;2.27;1.37;;;19.00;93.10;;;;;;4972250;28;20206;-71
2023/05/19 12:32:57;;;;;;;1.67;1.33;;;19.10;93.10;;;;;;4982475;28;20302;-72
2023/05/19 12:35:27;;;;;;;4.10;1.20;;;19.20;93.00;;;;;;4982632;28;20210;-72
2023/05/19 12:37:54;;;;;;;3.17;1.60;;;19.20;93.00;;;;;;4978559;28;20202;-72
2023/05/19 12:40:21;;;;;;;3.70;1.37;;;19.20;92.70;;;;;;4975489;28;20211;-72
2023/05/19 12:42:50;;;;;;;7.27;1.83;;;19.10;92.30;;;;;;4984831;28;20575;-72
2023/05/19 12:45:24;;;;;;;2.17;1.30;;;19.10;92.00;;;;;;4977544;28;20199;-72
2023/05/19 12:47:51;;;;;;;1.43;1.33;;;19.30;91.90;;;;;;4974723;28;20239;-72
2023/05/19 12:50:19;;;;;;;2.80;1.00;;;19.50;92.30;;;;;;4981340;28;20226;-71
2023/05/19 12:52:48;;;;;;;4.37;1.30;;;19.80;91.80;;;;;;4970220;28;20199;-72